createdAt,value
2022-10-24T00:00:43.813Z,94172.28
2022-10-24T00:03:11.438Z,94150.53
2022-10-24T00:05:42.161Z,94151.31
2022-10-24T00:08:08.869Z,94141.16
2022-10-24T00:10:36.871Z,94143.63
2022-10-24T00:13:03.983Z,94146.56
2022-10-24T00:15:31.506Z,94138.25
2022-10-24T00:17:57.912Z,94148.09
2022-10-24T00:20:24.294Z,94141.31
2022-10-24T00:22:50.862Z,94151.34
2022-10-24T00:25:17.327Z,94161.97
2022-10-24T00:27:43.826Z,94157.50
2022-10-24T00:30:10.680Z,94148.53
2022-10-24T00:32:37.085Z,94146.69
2022-10-24T00:35:04.225Z,94149.50
2022-10-24T00:37:30.748Z,94147.81
2022-10-24T00:39:57.170Z,94154.56
2022-10-24T00:42:23.800Z,94148.88
2022-10-24T00:44:53.116Z,94145.81
2022-10-24T00:47:22.059Z,94148.72
2022-10-24T00:49:50.634Z,94144.88
2022-10-24T00:52:23.910Z,94158.31
2022-10-24T00:54:53.154Z,94156.31
2022-10-24T00:57:25.539Z,94138.91
2022-10-24T00:59:57.790Z,94142.00
2022-10-24T01:02:24.814Z,94139.22
2022-10-24T01:04:51.180Z,94142.78
2022-10-24T01:07:32.650Z,94152.16
2022-10-24T01:10:17.914Z,94154.47
2022-10-24T01:13:02.446Z,94152.16
2022-10-24T01:15:44.144Z,94143.84
2022-10-24T01:18:16.428Z,94146.63
2022-10-24T01:20:55.116Z,94157.91
2022-10-24T01:23:35.765Z,94152.66
2022-10-24T01:26:28.490Z,94135.22
2022-10-24T01:29:23.718Z,94135.81
2022-10-24T01:32:08.166Z,94134.31
2022-10-24T01:34:48.319Z,94133.97
2022-10-24T01:37:59.086Z,94133.66
2022-10-24T01:40:38.237Z,94132.59
2022-10-24T01:43:14.978Z,94129.06
2022-10-24T01:45:48.232Z,94121.19
2022-10-24T01:48:20.234Z,94133.03
2022-10-24T01:50:49.546Z,94130.88
2022-10-24T01:53:16.842Z,94137.19
2022-10-24T01:55:45.477Z,94140.25
2022-10-24T01:58:11.891Z,94133.19
2022-10-24T02:00:38.634Z,94132.84
2022-10-24T02:03:16.594Z,94138.88
2022-10-24T02:05:49.170Z,94145.81
2022-10-24T02:08:21.850Z,94136.53
2022-10-24T02:10:52.348Z,94134.69
2022-10-24T02:13:29.082Z,94134.69
2022-10-24T02:15:58.920Z,94119.59
2022-10-24T02:18:26.024Z,94115.22
2022-10-24T02:21:05.634Z,94106.28
2022-10-24T02:23:47.477Z,94101.19
2022-10-24T02:26:22.623Z,94119.66
2022-10-24T02:28:53.532Z,94105.91
2022-10-24T02:31:24.685Z,94116.56
2022-10-24T02:33:51.628Z,94115.16
2022-10-24T02:36:24.124Z,94120.41
2022-10-24T02:38:53.732Z,94130.44
2022-10-24T02:41:24.233Z,94146.63
2022-10-24T02:43:53.240Z,94142.16
2022-10-24T02:46:20.679Z,94147.06
2022-10-24T02:48:59.240Z,94121.94
2022-10-24T02:51:30.165Z,94109.91
2022-10-24T02:53:58.404Z,94133.19
2022-10-24T02:56:24.797Z,94120.41
2022-10-24T02:58:51.185Z,94141.53
2022-10-24T03:01:17.720Z,94138.56
2022-10-24T03:03:44.325Z,94148.44
2022-10-24T03:06:10.750Z,94147.34
2022-10-24T03:08:37.145Z,94143.19
2022-10-24T03:11:03.915Z,94133.47
2022-10-24T03:13:30.327Z,94124.81
2022-10-24T03:15:56.749Z,94130.50
2022-10-24T03:18:23.164Z,94147.03
2022-10-24T03:20:49.588Z,94139.16
2022-10-24T03:23:16.547Z,94137.31
2022-10-24T03:25:42.970Z,94141.63
2022-10-24T03:28:09.338Z,94149.97
2022-10-24T03:30:35.780Z,94146.25
2022-10-24T03:33:02.318Z,94120.78
2022-10-24T03:35:28.718Z,94117.22
2022-10-24T03:37:55.162Z,94127.69
2022-10-24T03:40:21.533Z,94141.41
2022-10-24T03:42:48.258Z,94131.88
2022-10-24T03:45:15.671Z,94127.06
2022-10-24T03:47:42.096Z,94125.81
2022-10-24T03:50:08.661Z,94126.56
2022-10-24T03:52:35.040Z,94134.13
2022-10-24T03:55:01.478Z,94135.66
2022-10-24T03:57:27.952Z,94139.38
2022-10-24T03:59:54.349Z,94132.59
2022-10-24T04:02:20.831Z,94122.09
2022-10-24T04:04:47.282Z,94139.38
2022-10-24T04:07:13.694Z,94138.47
2022-10-24T04:09:40.058Z,94145.13
2022-10-24T04:12:06.475Z,94139.13
2022-10-24T04:14:32.913Z,94136.81
2022-10-24T04:16:59.448Z,94142.81
2022-10-24T04:19:25.964Z,94121.53
2022-10-24T04:21:52.431Z,94127.53
2022-10-24T04:24:18.888Z,94127.53
2022-10-24T04:26:45.278Z,94127.06
2022-10-24T04:29:11.687Z,94128.00
2022-10-24T04:31:38.182Z,94131.69
2022-10-24T04:34:05.494Z,94136.50
2022-10-24T04:36:33.029Z,94125.56
2022-10-24T04:41:26.862Z,94134.34
2022-10-24T04:43:53.339Z,94129.00
2022-10-24T04:46:19.746Z,94126.66
2022-10-24T04:48:46.204Z,94125.44
2022-10-24T04:51:13.182Z,94121.75
2022-10-24T04:53:39.697Z,94118.22
2022-10-24T04:56:06.491Z,94100.19
2022-10-24T04:58:32.987Z,94120.41
2022-10-24T05:00:59.395Z,94121.34
2022-10-24T05:03:25.800Z,94120.13
2022-10-24T05:05:52.233Z,94124.13
2022-10-24T05:08:18.727Z,94136.03
2022-10-24T05:10:45.568Z,94136.22
2022-10-24T05:13:12.203Z,94144.53
2022-10-24T05:15:38.693Z,94121.59
2022-10-24T05:18:05.250Z,94123.72
2022-10-24T05:20:31.863Z,94123.28
2022-10-24T05:22:58.247Z,94128.84
2022-10-24T05:25:24.714Z,94126.09
2022-10-24T05:27:51.090Z,94124.53
2022-10-24T05:30:17.678Z,94121.13
2022-10-24T05:32:44.327Z,94131.81
2022-10-24T05:35:11.004Z,94132.75
2022-10-24T05:37:38.975Z,94129.22
2022-10-24T05:40:07.894Z,94126.78
2022-10-24T05:42:34.312Z,94111.03
2022-10-24T05:45:00.690Z,94108.44
2022-10-24T05:47:29.162Z,94107.97
2022-10-24T05:49:55.869Z,94090.69
2022-10-24T05:52:22.286Z,94090.69
2022-10-24T05:54:55.652Z,94083.31
2022-10-24T05:57:33.038Z,94084.06
2022-10-24T05:59:59.536Z,94086.56
2022-10-24T06:02:26.767Z,94095.31
2022-10-24T06:04:54.920Z,94090.53
2022-10-24T06:07:21.607Z,94089.91
2022-10-24T06:09:47.998Z,94105.00
2022-10-24T06:12:14.496Z,94110.84
2022-10-24T06:14:41.114Z,94095.88
2022-10-24T06:17:09.141Z,94079.06
2022-10-24T06:19:36.748Z,94066.59
2022-10-24T06:22:05.150Z,94077.09
2022-10-24T06:24:33.905Z,94091.25
2022-10-24T06:27:00.258Z,94113.19
2022-10-24T06:29:26.664Z,94109.78
2022-10-24T06:31:53.126Z,94123.06
2022-10-24T06:36:50.881Z,94124.94
2022-10-24T06:39:17.374Z,94117.41
2022-10-24T06:41:43.786Z,94118.94
2022-10-24T06:44:14.660Z,94118.19
2022-10-24T06:46:41.084Z,94128.66
2022-10-24T06:49:07.814Z,94130.53
2022-10-24T06:51:34.383Z,94155.16
2022-10-24T06:54:00.894Z,94155.16
2022-10-24T06:56:27.279Z,94152.97
2022-10-24T06:58:53.749Z,94147.13
2022-10-24T07:01:22.333Z,94151.72
2022-10-24T07:03:49.227Z,94157.41
2022-10-24T07:08:51.036Z,94174.84
2022-10-24T07:11:17.700Z,94194.72
2022-10-24T07:13:44.114Z,94210.59
2022-10-24T07:16:11.014Z,94216.63
2022-10-24T07:18:37.718Z,94215.66
2022-10-24T07:21:05.845Z,94224.47
2022-10-24T07:23:33.415Z,94216.59
2022-10-24T07:26:05.329Z,94205.00
2022-10-24T07:28:32.265Z,94187.59
2022-10-24T07:30:59.181Z,94189.00
2022-10-24T07:33:25.850Z,94192.41
2022-10-24T07:35:52.232Z,94185.94
2022-10-24T07:38:18.889Z,94189.19
2022-10-24T07:40:45.931Z,94178.22
2022-10-24T07:43:12.857Z,94160.03
2022-10-24T07:45:40.297Z,94182.56
2022-10-24T07:48:06.970Z,94192.59
2022-10-24T07:50:35.276Z,94201.34
2022-10-24T07:53:01.695Z,94201.34
2022-10-24T07:55:28.105Z,94199.84
2022-10-24T07:57:54.512Z,94202.47
2022-10-24T08:00:21.205Z,94203.22
2022-10-24T08:05:22.165Z,94208.16
2022-10-24T08:07:55.848Z,94209.34
2022-10-24T08:10:26.762Z,94212.06
2022-10-24T08:12:53.128Z,94215.13
2022-10-24T08:15:19.566Z,94212.00
2022-10-24T08:17:45.929Z,94226.34
2022-10-24T08:20:12.437Z,94245.03
2022-10-24T08:22:38.899Z,94246.75
2022-10-24T08:25:08.098Z,94253.72
2022-10-24T08:27:34.539Z,94257.25
2022-10-24T08:30:00.930Z,94275.00
2022-10-24T08:32:27.319Z,94256.81
2022-10-24T08:34:53.742Z,94253.75
2022-10-24T08:37:20.132Z,94256.38
2022-10-24T08:39:46.497Z,94248.50
2022-10-24T08:42:16.114Z,94252.69
2022-10-24T08:44:47.248Z,94248.50
2022-10-24T08:50:24.694Z,94256.66
2022-10-24T08:52:57.454Z,94246.94
2022-10-24T08:55:49.322Z,94216.84
2022-10-24T08:58:21.403Z,94191.50
2022-10-24T09:00:50.585Z,94147.41
2022-10-24T09:06:27.516Z,94181.13
2022-10-24T09:09:11.494Z,94202.56
2022-10-24T09:11:51.154Z,94214.13
2022-10-24T09:14:18.803Z,94206.06
2022-10-24T09:16:50.449Z,94202.19
2022-10-24T09:19:20.891Z,94199.81
2022-10-24T09:21:48.293Z,94208.28
2022-10-24T09:24:33.830Z,94215.38
2022-10-24T09:27:04.432Z,94203.34
2022-10-24T09:29:32.438Z,94199.81
2022-10-24T09:31:59.725Z,94208.31
2022-10-24T09:34:26.371Z,94208.19
2022-10-24T09:36:52.789Z,94215.16
2022-10-24T09:39:31.969Z,94204.53
2022-10-24T09:42:00.502Z,94213.03
2022-10-24T09:44:33.304Z,94235.13
2022-10-24T09:47:01.009Z,94229.72
2022-10-24T09:49:34.555Z,94216.16
2022-10-24T09:52:24.031Z,94215.41
2022-10-24T09:55:16.939Z,94220.97
2022-10-24T09:57:43.981Z,94236.25
2022-10-24T10:00:26.681Z,94211.75
2022-10-24T10:03:04.092Z,94203.41
2022-10-24T10:05:47.101Z,94201.88
2022-10-24T10:08:25.315Z,94243.69
2022-10-24T10:11:04.371Z,94224.13
2022-10-24T10:13:37.597Z,94236.78
2022-10-24T10:16:05.717Z,94247.56
2022-10-24T10:18:38.138Z,94245.56
2022-10-24T10:21:05.182Z,94257.44
2022-10-24T10:23:36.305Z,94263.31
2022-10-24T10:26:29.174Z,94254.06
2022-10-24T10:29:18.138Z,94249.59
2022-10-24T10:31:50.614Z,94272.13
2022-10-24T10:34:23.048Z,94285.22
2022-10-24T10:37:23.114Z,94279.81
2022-10-24T10:40:15.020Z,94270.72
2022-10-24T10:43:00.175Z,94239.88
2022-10-24T10:45:32.785Z,94235.25
2022-10-24T10:48:35.965Z,94217.41
2022-10-24T10:51:19.411Z,94252.09
2022-10-24T10:54:22.560Z,94245.75
2022-10-24T10:56:56.559Z,94242.38
2022-10-24T10:59:39.984Z,94213.41
2022-10-24T11:02:34.151Z,94218.63
2022-10-24T11:05:40.228Z,94161.75
2022-10-24T11:08:22.063Z,94109.16
2022-10-24T11:11:22.963Z,94137.38
2022-10-24T11:14:10.854Z,94185.34
2022-10-24T11:16:39.654Z,94187.19
2022-10-24T11:19:14.203Z,94211.84
2022-10-24T11:21:43.434Z,94220.81
2022-10-24T11:24:17.233Z,94246.38
2022-10-24T11:26:50.653Z,94232.19
2022-10-24T11:29:28.897Z,94249.16
2022-10-24T11:32:01.300Z,94237.59
2022-10-24T11:34:52.773Z,94242.97
2022-10-24T11:37:24.328Z,94231.41
2022-10-24T11:39:59.320Z,94239.88
2022-10-24T11:42:49.627Z,94245.47
2022-10-24T11:45:21.338Z,94244.50
2022-10-24T11:48:24.666Z,94250.69
2022-10-24T11:50:59.493Z,94241.72
2022-10-24T11:53:28.697Z,94253.13
2022-10-24T11:56:01.076Z,94240.91
2022-10-24T11:58:31.320Z,94230.28
2022-10-24T12:01:04.748Z,94230.41
2022-10-24T12:03:57.552Z,94244.75
2022-10-24T12:06:42.691Z,94221.75
2022-10-24T12:09:50.477Z,94194.94
2022-10-24T12:12:22.765Z,94169.66
2022-10-24T12:15:02.932Z,94161.97
2022-10-24T12:17:40.196Z,94177.72
2022-10-24T12:20:13.636Z,94175.72
2022-10-24T12:22:44.035Z,94178.16
2022-10-24T12:25:22.328Z,94196.53
2022-10-24T12:28:18.092Z,94179.56
2022-10-24T12:31:13.974Z,94186.66
2022-10-24T12:33:42.420Z,94174.16
2022-10-24T12:36:09.993Z,94170.94
2022-10-24T12:38:36.398Z,94148.53
2022-10-24T12:41:06.841Z,94168.13
2022-10-24T12:43:39.102Z,94163.03
2022-10-24T12:46:15.216Z,94155.31
2022-10-24T12:49:05.649Z,94156.06
2022-10-24T12:51:39.190Z,94165.34
2022-10-24T12:54:11.477Z,94188.31
2022-10-24T12:56:50.263Z,94195.09
2022-10-24T12:59:22.534Z,94195.72
2022-10-24T13:01:51.556Z,94198.34
2022-10-24T13:04:46.428Z,94198.34
2022-10-24T13:07:13.113Z,94192.66
2022-10-24T13:09:58.740Z,94196.34
2022-10-24T13:12:34.657Z,94215.31
2022-10-24T13:15:39.383Z,94184.97
2022-10-24T13:18:14.851Z,94201.31
2022-10-24T13:20:44.547Z,94185.44
2022-10-24T13:23:22.422Z,94188.66
2022-10-24T13:25:53.336Z,94177.53
2022-10-24T13:28:19.769Z,94171.03
2022-10-24T13:30:49.571Z,94167.00
2022-10-24T13:33:36.319Z,94172.53
2022-10-24T13:36:08.697Z,94162.19
2022-10-24T13:38:46.311Z,94175.44
2022-10-24T13:41:19.733Z,94158.94
2022-10-24T13:43:49.373Z,94166.16
2022-10-24T13:46:43.735Z,94174.28
2022-10-24T13:49:22.354Z,94168.59
2022-10-24T13:51:52.536Z,94173.41
2022-10-24T13:54:26.873Z,94177.72
2022-10-24T13:56:55.988Z,94173.88
2022-10-24T13:59:31.231Z,94178.25
2022-10-24T14:02:01.008Z,94171.31
2022-10-24T14:04:28.342Z,94172.25
2022-10-24T14:07:02.495Z,94171.03
2022-10-24T14:09:29.292Z,94173.50
2022-10-24T14:11:59.258Z,94170.75
2022-10-24T14:14:32.761Z,94173.06
2022-10-24T14:17:23.611Z,94185.41
2022-10-24T14:19:59.322Z,94176.66
2022-10-24T14:22:30.231Z,94184.19
2022-10-24T14:24:57.081Z,94184.50
2022-10-24T14:27:23.884Z,94187.13
2022-10-24T14:29:59.147Z,94183.41
2022-10-24T14:32:27.400Z,94186.81
2022-10-24T14:34:55.459Z,94205.94
2022-10-24T14:37:35.554Z,94193.28
2022-10-24T14:40:04.950Z,94201.75
2022-10-24T14:42:32.314Z,94197.78
2022-10-24T14:44:59.914Z,94196.53
2022-10-24T14:47:31.500Z,94200.56
2022-10-24T14:50:00.901Z,94194.88
2022-10-24T14:52:27.236Z,94198.13
2022-10-24T14:55:05.119Z,94200.28
2022-10-24T14:57:33.729Z,94207.38
2022-10-24T15:00:07.350Z,94200.47
2022-10-24T15:02:42.007Z,94202.59
2022-10-24T15:05:22.777Z,94203.38
2022-10-24T15:08:16.833Z,94214.63
2022-10-24T15:10:43.794Z,94203.72
2022-10-24T15:13:24.289Z,94197.25
2022-10-24T15:15:58.129Z,94198.28
2022-10-24T15:18:29.229Z,94206.84
2022-10-24T15:21:07.688Z,94210.78
2022-10-24T15:23:37.843Z,94208.81
2022-10-24T15:26:18.736Z,94205.38
2022-10-24T15:28:48.387Z,94207.59
2022-10-24T15:31:20.248Z,94215.63
2022-10-24T15:33:47.861Z,94227.28
2022-10-24T15:36:31.438Z,94224.81
2022-10-24T15:39:00.609Z,94219.50
2022-10-24T15:41:27.758Z,94230.81
2022-10-24T15:43:55.425Z,94225.03
2022-10-24T15:46:24.721Z,94231.38
2022-10-24T15:48:51.120Z,94239.28
2022-10-24T15:51:22.938Z,94229.72
2022-10-24T15:53:50.263Z,94226.69
2022-10-24T15:56:17.366Z,94235.31
2022-10-24T15:58:44.029Z,94222.69
2022-10-24T16:01:26.839Z,94216.84
2022-10-24T16:03:53.568Z,94214.38
2022-10-24T16:06:21.839Z,94225.47
2022-10-24T16:08:49.056Z,94238.72
2022-10-24T16:11:15.787Z,94231.75
2022-10-24T16:13:42.346Z,94231.63
2022-10-24T16:16:08.827Z,94219.75
2022-10-24T16:18:36.398Z,94229.78
2022-10-24T16:21:04.974Z,94218.38
2022-10-24T16:23:32.074Z,94234.09
2022-10-24T16:25:58.502Z,94236.25
2022-10-24T16:28:25.972Z,94239.16
2022-10-24T16:30:52.687Z,94233.00
2022-10-24T16:33:20.176Z,94230.84
2022-10-24T16:35:49.806Z,94239.78
2022-10-24T16:38:16.488Z,94246.09
2022-10-24T16:40:46.436Z,94238.56
2022-10-24T16:43:16.216Z,94238.56
2022-10-24T16:45:43.047Z,94245.94
2022-10-24T16:48:10.616Z,94242.09
2022-10-24T16:50:41.433Z,94249.47
2022-10-24T16:53:08.772Z,94245.31
2022-10-24T16:55:35.171Z,94249.16
2022-10-24T16:58:01.641Z,94239.78
2022-10-24T17:00:28.590Z,94235.31
2022-10-24T17:02:57.864Z,94237.16
2022-10-24T17:05:26.999Z,94249.03
2022-10-24T17:07:53.920Z,94252.72
2022-10-24T17:10:23.799Z,94244.41
2022-10-24T17:12:51.403Z,94246.25
2022-10-24T17:15:21.905Z,94252.09
2022-10-24T17:17:49.375Z,94255.63
2022-10-24T17:20:17.188Z,94262.25
2022-10-24T17:22:44.794Z,94259.78
2022-10-24T17:25:28.215Z,94260.53
2022-10-24T17:27:55.057Z,94260.69
2022-10-24T17:30:24.677Z,94267.63
2022-10-24T17:32:51.568Z,94270.25
2022-10-24T17:35:20.852Z,94265.16
2022-10-24T17:37:59.277Z,94267.63
2022-10-24T17:40:29.604Z,94276.25
2022-10-24T17:42:56.285Z,94293.66
2022-10-24T17:45:24.969Z,94276.72
2022-10-24T17:47:51.662Z,94278.44
2022-10-24T17:50:18.945Z,94286.28
2022-10-24T17:52:50.676Z,94290.41
2022-10-24T17:55:44.524Z,94286.91
2022-10-24T17:58:09.410Z,94299.69
2022-10-24T18:00:36.286Z,94290.75
2022-10-24T18:03:03.368Z,94299.06
2022-10-24T18:05:29.846Z,94303.53
2022-10-24T18:07:57.798Z,94295.38
2022-10-24T18:10:24.571Z,94298.47
2022-10-24T18:12:51.045Z,94296.31
2022-10-24T18:15:21.394Z,94294.78
2022-10-24T18:17:48.795Z,94294.78
2022-10-24T18:20:15.784Z,94288.78
2022-10-24T18:22:43.795Z,94297.53
2022-10-24T18:25:12.456Z,94295.81
2022-10-24T18:27:39.402Z,94297.66
2022-10-24T18:30:06.427Z,94293.34
2022-10-24T18:32:33.338Z,94303.84
2022-10-24T18:34:59.889Z,94303.06
2022-10-24T18:37:26.346Z,94301.81
2022-10-24T18:39:53.997Z,94300.59
2022-10-24T18:42:43.610Z,94299.81
2022-10-24T18:45:17.234Z,94301.78
2022-10-24T18:47:44.288Z,94297.16
2022-10-24T18:50:15.574Z,94302.41
2022-10-24T18:53:05.912Z,94294.41
2022-10-24T18:55:34.055Z,94299.75
2022-10-24T18:58:00.812Z,94307.13
2022-10-24T19:00:30.200Z,94316.84
2022-10-24T19:03:13.418Z,94322.06
2022-10-24T19:05:52.014Z,94329.63
2022-10-24T19:08:23.484Z,94339.31
2022-10-24T19:10:55.748Z,94339.31
2022-10-24T19:13:24.041Z,94341.16
2022-10-24T19:15:57.756Z,94346.22
2022-10-24T19:18:25.504Z,94359.00
2022-10-24T19:20:51.867Z,94363.00
2022-10-24T19:23:18.602Z,94375.31
2022-10-24T19:25:45.405Z,94390.84
2022-10-24T19:28:16.279Z,94379.91
2022-10-24T19:30:44.622Z,94393.63
2022-10-24T19:33:12.987Z,94380.81
2022-10-24T19:35:45.012Z,94379.75
2022-10-24T19:38:11.432Z,94375.00
2022-10-24T19:40:44.698Z,94366.53
2022-10-24T19:43:11.066Z,94363.34
2022-10-24T19:45:39.514Z,94368.56
2022-10-24T19:48:08.909Z,94373.97
2022-10-24T19:50:35.449Z,94378.44
2022-10-24T19:53:01.944Z,94381.81
2022-10-24T19:55:28.534Z,94381.50
2022-10-24T19:57:55.066Z,94383.84
2022-10-24T20:00:21.797Z,94375.69
2022-10-24T20:02:48.539Z,94390.00
2022-10-24T20:05:15.339Z,94399.41
2022-10-24T20:07:41.701Z,94392.00
2022-10-24T20:10:08.404Z,94392.47
2022-10-24T20:12:34.896Z,94381.25
2022-10-24T20:15:01.286Z,94379.72
2022-10-24T20:17:27.678Z,94386.50
2022-10-24T20:19:54.069Z,94385.72
2022-10-24T20:22:20.483Z,94383.38
2022-10-24T20:24:46.865Z,94376.91
2022-10-24T20:27:13.428Z,94370.94
2022-10-24T20:29:39.878Z,94389.06
2022-10-24T20:32:06.393Z,94387.84
2022-10-24T20:34:32.734Z,94374.88
2022-10-24T20:36:59.177Z,94384.88
2022-10-24T20:39:26.119Z,94376.09
2022-10-24T20:41:54.176Z,94378.22
2022-10-24T20:44:21.383Z,94378.53
2022-10-24T20:46:47.805Z,94379.91
2022-10-24T20:49:14.233Z,94387.75
2022-10-24T20:51:42.338Z,94400.66
2022-10-24T20:54:10.066Z,94400.50
2022-10-24T20:56:41.781Z,94394.31
2022-10-24T20:59:08.999Z,94401.09
2022-10-24T21:01:35.449Z,94413.09
2022-10-24T21:04:01.874Z,94414.31
2022-10-24T21:06:30.473Z,94412.16
2022-10-24T21:08:59.811Z,94430.03
2022-10-24T21:11:29.016Z,94437.88
2022-10-24T21:13:58.327Z,94446.81
2022-10-24T21:16:25.234Z,94453.88
2022-10-24T21:18:52.206Z,94470.47
2022-10-24T21:21:19.881Z,94494.88
2022-10-24T21:23:50.764Z,94500.38
2022-10-24T21:26:17.670Z,94506.28
2022-10-24T21:28:44.123Z,94522.47
2022-10-24T21:31:12.892Z,94518.31
2022-10-24T21:33:41.538Z,94517.75
2022-10-24T21:36:26.025Z,94521.75
2022-10-24T21:38:57.058Z,94524.75
2022-10-24T21:41:24.020Z,94522.53
2022-10-24T21:43:51.890Z,94501.22
2022-10-24T21:46:21.154Z,94480.94
2022-10-24T21:48:49.862Z,94458.50
2022-10-24T21:51:26.077Z,94443.41
2022-10-24T21:53:58.327Z,94409.56
2022-10-24T21:56:28.195Z,94413.22
2022-10-24T21:59:00.604Z,94432.75
2022-10-24T22:01:30.175Z,94421.56
2022-10-24T22:03:59.733Z,94425.03
2022-10-24T22:06:27.608Z,94423.50
2022-10-24T22:08:54.816Z,94438.09
2022-10-24T22:11:24.569Z,94437.03
2022-10-24T22:13:51.343Z,94429.47
2022-10-24T22:16:20.095Z,94427.94
2022-10-24T22:18:47.368Z,94415.00
2022-10-24T22:21:30.539Z,94431.72
2022-10-24T22:24:01.960Z,94427.38
2022-10-24T22:26:29.284Z,94428.44
2022-10-24T22:28:55.914Z,94437.63
2022-10-24T22:31:24.731Z,94433.19
2022-10-24T22:33:51.900Z,94436.06
2022-10-24T22:36:24.222Z,94434.72
2022-10-24T22:38:54.309Z,94445.16
2022-10-24T22:41:22.057Z,94445.00
2022-10-24T22:43:49.281Z,94447.66
2022-10-24T22:46:47.930Z,94453.31
2022-10-24T22:49:40.194Z,94452.16
2022-10-24T22:52:10.257Z,94460.03
2022-10-24T22:54:37.363Z,94466.34
2022-10-24T22:57:05.058Z,94462.56
2022-10-24T22:59:32.236Z,94466.44
2022-10-24T23:02:01.797Z,94466.44
2022-10-24T23:04:38.712Z,94465.19
2022-10-24T23:07:30.703Z,94462.38
2022-10-24T23:09:57.092Z,94476.25
2022-10-24T23:12:23.882Z,94472.94
2022-10-24T23:14:50.857Z,94474.00
2022-10-24T23:17:26.618Z,94470.63
2022-10-24T23:19:54.269Z,94479.50
2022-10-24T23:22:29.470Z,94477.69
2022-10-24T23:24:58.196Z,94473.22
2022-10-24T23:27:38.264Z,94474.28
2022-10-24T23:30:18.758Z,94470.31
2022-10-24T23:32:47.640Z,94477.41
2022-10-24T23:35:16.345Z,94472.94
2022-10-24T23:37:45.664Z,94471.66
2022-10-24T23:40:17.407Z,94474.50
2022-10-24T23:42:45.432Z,94483.59
2022-10-24T23:45:14.086Z,94483.59
2022-10-24T23:47:50.250Z,94485.94
2022-10-24T23:50:49.210Z,94483.81
2022-10-24T23:53:34.131Z,94485.16
2022-10-24T23:58:32.150Z,94485.84
